sensor_id;sensor_type;location;lat;lon;timestamp;pressure;altitude;pressure_sealevel;temperature;humidity
46682;BME280;34101;53.430;-2.224;2022-12-18T00:02:15;153206.46;;;2.90;100.00
46682;BME280;34101;53.430;-2.224;2022-12-18T00:04:43;153179.52;;;2.80;100.00
46682;BME280;34101;53.430;-2.224;2022-12-18T00:07:10;153186.60;;;2.82;100.00
46682;BME280;34101;53.430;-2.224;2022-12-18T00:09:37;153189.41;;;2.84;100.00
46682;BME280;34101;53.430;-2.224;2022-12-18T00:12:05;153189.41;;;2.84;100.00
46682;BME280;34101;53.430;-2.224;2022-12-18T00:14:33;153187.56;;;2.83;100.00
46682;BME280;34101;53.430;-2.224;2022-12-18T00:17:00;153177.03;;;2.79;100.00
46682;BME280;34101;53.430;-2.224;2022-12-18T00:19:27;153172.84;;;2.77;100.00
46682;BME280;34101;53.430;-2.224;2022-12-18T00:21:55;153167.54;;;2.75;100.00
46682;BME280;34101;53.430;-2.224;2022-12-18T00:24:22;153156.76;;;2.70;100.00
46682;BME280;34101;53.430;-2.224;2022-12-18T00:26:50;153154.43;;;2.69;100.00
46682;BME280;34101;53.430;-2.224;2022-12-18T00:29:17;153155.87;;;2.70;100.00
46682;BME280;34101;53.430;-2.224;2022-12-18T00:31:45;153152.17;;;2.68;100.00
46682;BME280;34101;53.430;-2.224;2022-12-18T00:34:13;153145.58;;;2.66;100.00
46682;BME280;34101;53.430;-2.224;2022-12-18T00:36:41;153134.48;;;2.61;100.00
46682;BME280;34101;53.430;-2.224;2022-12-18T00:39:10;153119.77;;;2.55;100.00
46682;BME280;34101;53.430;-2.224;2022-12-18T00:41:37;153105.61;;;2.50;100.00
46682;BME280;34101;53.430;-2.224;2022-12-18T00:44:06;153105.37;;;2.50;100.00
46682;BME280;34101;53.430;-2.224;2022-12-18T00:46:33;153110.20;;;2.51;100.00
46682;BME280;34101;53.430;-2.224;2022-12-18T00:49:01;153106.18;;;2.50;100.00
46682;BME280;34101;53.430;-2.224;2022-12-18T00:51:29;153098.70;;;2.47;100.00
46682;BME280;34101;53.430;-2.224;2022-12-18T00:53:56;153088.49;;;2.43;100.00
46682;BME280;34101;53.430;-2.224;2022-12-18T00:56:24;153076.99;;;2.38;100.00
46682;BME280;34101;53.430;-2.224;2022-12-18T00:58:51;153066.70;;;2.34;100.00
46682;BME280;34101;53.430;-2.224;2022-12-18T01:01:20;153051.50;;;2.28;100.00
46682;BME280;34101;53.430;-2.224;2022-12-18T01:03:47;153045.39;;;2.25;100.00
46682;BME280;34101;53.430;-2.224;2022-12-18T01:06:16;153036.23;;;2.22;100.00
46682;BME280;34101;53.430;-2.224;2022-12-18T01:08:44;153032.69;;;2.20;100.00
46682;BME280;34101;53.430;-2.224;2022-12-18T01:11:14;153030.04;;;2.19;100.00
46682;BME280;34101;53.430;-2.224;2022-12-18T01:13:42;153019.83;;;2.15;100.00
46682;BME280;34101;53.430;-2.224;2022-12-18T01:16:11;153010.98;;;2.11;100.00
46682;BME280;34101;53.430;-2.224;2022-12-18T01:18:39;153001.98;;;2.08;100.00
46682;BME280;34101;53.430;-2.224;2022-12-18T01:21:08;152999.01;;;2.06;100.00
46682;BME280;34101;53.430;-2.224;2022-12-18T01:23:35;152992.50;;;2.04;100.00
46682;BME280;34101;53.430;-2.224;2022-12-18T01:26:07;152982.53;;;2.00;100.00
46682;BME280;34101;53.430;-2.224;2022-12-18T01:28:35;152972.56;;;1.96;100.00
46682;BME280;34101;53.430;-2.224;2022-12-18T01:31:11;152974.73;;;1.97;100.00
46682;BME280;34101;53.430;-2.224;2022-12-18T01:33:38;152971.11;;;1.95;100.00
46682;BME280;34101;53.430;-2.224;2022-12-18T01:36:06;152965.65;;;1.93;100.00
46682;BME280;34101;53.430;-2.224;2022-12-18T01:38:33;152961.55;;;1.91;100.00
46682;BME280;34101;53.430;-2.224;2022-12-18T01:41:01;152945.96;;;1.85;100.00
46682;BME280;34101;53.430;-2.224;2022-12-18T01:43:48;152939.45;;;1.82;100.00
46682;BME280;34101;53.430;-2.224;2022-12-18T01:46:17;152929.48;;;1.78;100.00
46682;BME280;34101;53.430;-2.224;2022-12-18T01:48:47;152918.71;;;1.74;100.00
46682;BME280;34101;53.430;-2.224;2022-12-18T01:51:14;152921.69;;;1.75;100.00
46682;BME280;34101;53.430;-2.224;2022-12-18T01:53:43;152919.19;;;1.74;100.00
46682;BME280;34101;53.430;-2.224;2022-12-18T01:56:14;152911.08;;;1.71;100.00
46682;BME280;34101;53.430;-2.224;2022-12-18T01:58:50;152913.33;;;1.72;100.00
46682;BME280;34101;53.430;-2.224;2022-12-18T02:01:21;152907.70;;;1.69;100.00
46682;BME280;34101;53.430;-2.224;2022-12-18T02:03:50;152904.81;;;1.68;100.00
46682;BME280;34101;53.430;-2.224;2022-12-18T02:06:21;152904.01;;;1.68;100.00
46682;BME280;34101;53.430;-2.224;2022-12-18T02:09:02;152903.52;;;1.68;100.00
46682;BME280;34101;53.430;-2.224;2022-12-18T02:11:39;152904.01;;;1.68;100.00
46682;BME280;34101;53.430;-2.224;2022-12-18T02:14:18;152900.71;;;1.67;100.00
46682;BME280;34101;53.430;-2.224;2022-12-18T02:16:52;152897.34;;;1.65;100.00
46682;BME280;34101;53.430;-2.224;2022-12-18T02:19:40;152893.48;;;1.64;100.00
46682;BME280;34101;53.430;-2.224;2022-12-18T02:22:23;152894.28;;;1.64;100.00
46682;BME280;34101;53.430;-2.224;2022-12-18T02:25:00;152899.83;;;1.66;100.00
46682;BME280;34101;53.430;-2.224;2022-12-18T02:27:32;152900.79;;;1.67;100.00
46682;BME280;34101;53.430;-2.224;2022-12-18T02:30:02;152900.63;;;1.67;100.00
46682;BME280;34101;53.430;-2.224;2022-12-18T02:32:33;152901.84;;;1.67;100.00
46682;BME280;34101;53.430;-2.224;2022-12-18T02:35:03;152902.56;;;1.67;100.00
46682;BME280;34101;53.430;-2.224;2022-12-18T02:37:34;152902.40;;;1.67;100.00
46682;BME280;34101;53.430;-2.224;2022-12-18T02:40:04;152904.49;;;1.68;100.00
46682;BME280;34101;53.430;-2.224;2022-12-18T02:42:32;152905.29;;;1.68;100.00
46682;BME280;34101;53.430;-2.224;2022-12-18T02:45:01;152906.34;;;1.69;100.00
46682;BME280;34101;53.430;-2.224;2022-12-18T02:47:32;152910.59;;;1.71;100.00
46682;BME280;34101;53.430;-2.224;2022-12-18T02:50:08;152914.05;;;1.72;100.00
46682;BME280;34101;53.430;-2.224;2022-12-18T02:52:45;152910.68;;;1.71;100.00
46682;BME280;34101;53.430;-2.224;2022-12-18T02:55:28;152906.17;;;1.69;100.00
46682;BME280;34101;53.430;-2.224;2022-12-18T02:58:03;152901.92;;;1.67;100.00
46682;BME280;34101;53.430;-2.224;2022-12-18T03:02:29;152904.17;;;1.68;100.00
46682;BME280;34101;53.430;-2.224;2022-12-18T03:05:13;152901.59;;;1.67;100.00
46682;BME280;34101;53.430;-2.224;2022-12-18T03:07:49;152907.30;;;1.69;100.00
46682;BME280;34101;53.430;-2.224;2022-12-18T03:10:23;152912.36;;;1.71;100.00
46682;BME280;34101;53.430;-2.224;2022-12-18T03:12:56;152912.04;;;1.71;100.00
46682;BME280;34101;53.430;-2.224;2022-12-18T03:15:30;152910.43;;;1.71;100.00
46682;BME280;34101;53.430;-2.224;2022-12-18T03:18:04;152898.30;;;1.66;100.00
46682;BME280;34101;53.430;-2.224;2022-12-18T03:20:34;152890.99;;;1.63;100.00
46682;BME280;34101;53.430;-2.224;2022-12-18T03:23:09;152879.09;;;1.58;100.00
46682;BME280;34101;53.430;-2.224;2022-12-18T03:25:40;152878.37;;;1.58;100.00
46682;BME280;34101;53.430;-2.224;2022-12-18T03:28:12;152880.78;;;1.59;100.00
46682;BME280;34101;53.430;-2.224;2022-12-18T03:30:42;152875.80;;;1.57;100.00
46682;BME280;34101;53.430;-2.224;2022-12-18T03:33:15;152874.75;;;1.56;100.00
46682;BME280;34101;53.430;-2.224;2022-12-18T03:35:44;152882.63;;;1.59;100.00
46682;BME280;34101;53.430;-2.224;2022-12-18T03:38:11;152888.90;;;1.62;100.00
46682;BME280;34101;53.430;-2.224;2022-12-18T03:40:47;152886.25;;;1.61;100.00
46682;BME280;34101;53.430;-2.224;2022-12-18T03:43:24;152886.41;;;1.61;100.00
46682;BME280;34101;53.430;-2.224;2022-12-18T03:46:02;152888.74;;;1.62;100.00
46682;BME280;34101;53.430;-2.224;2022-12-18T03:48:34;152892.67;;;1.63;100.00
46682;BME280;34101;53.430;-2.224;2022-12-18T03:51:09;152898.54;;;1.66;100.00
46682;BME280;34101;53.430;-2.224;2022-12-18T03:53:42;152896.93;;;1.65;100.00
46682;BME280;34101;53.430;-2.224;2022-12-18T03:56:16;152895.57;;;1.65;100.00
46682;BME280;34101;53.430;-2.224;2022-12-18T03:58:44;152891.07;;;1.63;100.00
46682;BME280;34101;53.430;-2.224;2022-12-18T04:01:14;152877.33;;;1.57;100.00
46682;BME280;34101;53.430;-2.224;2022-12-18T04:03:43;152874.27;;;1.56;100.00
46682;BME280;34101;53.430;-2.224;2022-12-18T04:06:11;152877.89;;;1.57;100.00
46682;BME280;34101;53.430;-2.224;2022-12-18T04:08:39;152874.19;;;1.56;100.00
46682;BME280;34101;53.430;-2.224;2022-12-18T04:11:07;152867.60;;;1.53;100.00
46682;BME280;34101;53.430;-2.224;2022-12-18T04:13:36;152872.18;;;1.55;100.00
46682;BME280;34101;53.430;-2.224;2022-12-18T04:16:04;152875.24;;;1.56;100.00
46682;BME280;34101;53.430;-2.224;2022-12-18T04:18:31;152880.54;;;1.58;100.00
46682;BME280;34101;53.430;-2.224;2022-12-18T04:20:59;152882.71;;;1.59;100.00
46682;BME280;34101;53.430;-2.224;2022-12-18T04:23:26;152878.69;;;1.58;100.00
46682;BME280;34101;53.430;-2.224;2022-12-18T04:25:54;152873.47;;;1.56;100.00
46682;BME280;34101;53.430;-2.224;2022-12-18T04:28:22;152875.24;;;1.56;100.00
46682;BME280;34101;53.430;-2.224;2022-12-18T04:30:49;152874.75;;;1.56;100.00
46682;BME280;34101;53.430;-2.224;2022-12-18T04:33:17;152878.13;;;1.57;100.00
46682;BME280;34101;53.430;-2.224;2022-12-18T04:35:44;152879.74;;;1.58;100.00
46682;BME280;34101;53.430;-2.224;2022-12-18T04:38:12;152881.50;;;1.59;100.00
46682;BME280;34101;53.430;-2.224;2022-12-18T04:40:39;152885.76;;;1.61;100.00
46682;BME280;34101;53.430;-2.224;2022-12-18T04:43:07;152888.50;;;1.62;100.00
46682;BME280;34101;53.430;-2.224;2022-12-18T04:45:34;152880.86;;;1.59;100.00
46682;BME280;34101;53.430;-2.224;2022-12-18T04:48:03;152882.63;;;1.59;100.00
46682;BME280;34101;53.430;-2.224;2022-12-18T04:50:30;152873.87;;;1.56;100.00
46682;BME280;34101;53.430;-2.224;2022-12-18T04:52:58;152886.57;;;1.61;100.00
46682;BME280;34101;53.430;-2.224;2022-12-18T04:55:26;152900.71;;;1.67;100.00
46682;BME280;34101;53.430;-2.224;2022-12-18T04:57:54;152904.25;;;1.68;100.00
46682;BME280;34101;53.430;-2.224;2022-12-18T05:00:23;152896.13;;;1.65;100.00
46682;BME280;34101;53.430;-2.224;2022-12-18T05:02:50;152897.74;;;1.65;100.00
46682;BME280;34101;53.430;-2.224;2022-12-18T05:05:17;152902.96;;;1.68;100.00
46682;BME280;34101;53.430;-2.224;2022-12-18T05:07:45;152907.30;;;1.69;100.00
46682;BME280;34101;53.430;-2.224;2022-12-18T05:10:12;152909.47;;;1.70;100.00
46682;BME280;34101;53.430;-2.224;2022-12-18T05:12:39;152917.75;;;1.74;100.00
46682;BME280;34101;53.430;-2.224;2022-12-18T05:15:07;152915.10;;;1.72;100.00
46682;BME280;34101;53.430;-2.224;2022-12-18T05:17:35;152914.85;;;1.72;100.00
46682;BME280;34101;53.430;-2.224;2022-12-18T05:20:02;152924.82;;;1.76;100.00
46682;BME280;34101;53.430;-2.224;2022-12-18T05:22:30;152928.03;;;1.78;100.00
46682;BME280;34101;53.430;-2.224;2022-12-18T05:24:57;152936.39;;;1.81;100.00
46682;BME280;34101;53.430;-2.224;2022-12-18T05:27:25;152941.78;;;1.83;100.00
46682;BME280;34101;53.430;-2.224;2022-12-18T05:29:52;152950.86;;;1.87;100.00
46682;BME280;34101;53.430;-2.224;2022-12-18T05:32:20;152951.34;;;1.87;100.00
46682;BME280;34101;53.430;-2.224;2022-12-18T05:34:47;152949.41;;;1.86;100.00
46682;BME280;34101;53.430;-2.224;2022-12-18T05:37:14;152952.55;;;1.88;100.00
46682;BME280;34101;53.430;-2.224;2022-12-18T05:39:43;152943.14;;;1.84;100.00
46682;BME280;34101;53.430;-2.224;2022-12-18T05:42:10;152942.50;;;1.84;100.00
46682;BME280;34101;53.430;-2.224;2022-12-18T05:44:37;152951.50;;;1.87;100.00
46682;BME280;34101;53.430;-2.224;2022-12-18T05:47:05;152948.05;;;1.86;100.00
46682;BME280;34101;53.430;-2.224;2022-12-18T05:49:32;152942.34;;;1.83;100.00
46682;BME280;34101;53.430;-2.224;2022-12-18T05:52:00;152945.39;;;1.85;100.00
46682;BME280;34101;53.430;-2.224;2022-12-18T05:54:27;152949.98;;;1.87;100.00
46682;BME280;34101;53.430;-2.224;2022-12-18T05:56:55;152953.11;;;1.88;100.00
46682;BME280;34101;53.430;-2.224;2022-12-18T05:59:24;152956.89;;;1.89;100.00
46682;BME280;34101;53.430;-2.224;2022-12-18T06:01:51;152960.83;;;1.91;100.00
46682;BME280;34101;53.430;-2.224;2022-12-18T06:04:18;152964.52;;;1.92;100.00
46682;BME280;34101;53.430;-2.224;2022-12-18T06:06:45;152953.75;;;1.88;100.00
46682;BME280;34101;53.430;-2.224;2022-12-18T06:09:13;152957.85;;;1.90;100.00
46682;BME280;34101;53.430;-2.224;2022-12-18T06:11:40;152959.70;;;1.91;100.00
46682;BME280;34101;53.430;-2.224;2022-12-18T06:14:10;152970.95;;;1.95;100.00
46682;BME280;34101;53.430;-2.224;2022-12-18T06:16:36;152978.03;;;1.98;100.00
46682;BME280;34101;53.430;-2.224;2022-12-18T06:19:05;152984.14;;;2.00;100.00
46682;BME280;34101;53.430;-2.224;2022-12-18T06:21:33;152993.62;;;2.04;100.00
46682;BME280;34101;53.430;-2.224;2022-12-18T06:24:00;152996.76;;;2.06;100.00
46682;BME280;34101;53.430;-2.224;2022-12-18T06:26:28;153012.67;;;2.12;100.00
46682;BME280;34101;53.430;-2.224;2022-12-18T06:28:55;153030.12;;;2.19;100.00
46682;BME280;34101;53.430;-2.224;2022-12-18T06:31:22;153046.84;;;2.26;100.00
46682;BME280;34101;53.430;-2.224;2022-12-18T06:33:50;153063.88;;;2.33;100.00
46682;BME280;34101;53.430;-2.224;2022-12-18T06:36:17;153068.15;;;2.34;100.00
46682;BME280;34101;53.430;-2.224;2022-12-18T06:38:46;153082.38;;;2.40;100.00
46682;BME280;34101;53.430;-2.224;2022-12-18T06:41:16;153095.00;;;2.45;100.00
46682;BME280;34101;53.430;-2.224;2022-12-18T06:43:43;153099.26;;;2.47;100.00
46682;BME280;34101;53.430;-2.224;2022-12-18T06:46:11;153112.05;;;2.52;100.00
46682;BME280;34101;53.430;-2.224;2022-12-18T06:48:39;153106.58;;;2.50;100.00
46682;BME280;34101;53.430;-2.224;2022-12-18T06:51:06;153118.80;;;2.55;100.00
46682;BME280;34101;53.430;-2.224;2022-12-18T06:53:34;153115.83;;;2.54;100.00
46682;BME280;34101;53.430;-2.224;2022-12-18T06:56:03;153129.34;;;2.59;100.00
46682;BME280;34101;53.430;-2.224;2022-12-18T06:58:30;153123.71;;;2.57;100.00
46682;BME280;34101;53.430;-2.224;2022-12-18T07:01:00;153122.26;;;2.56;100.00
46682;BME280;34101;53.430;-2.224;2022-12-18T07:03:27;153136.90;;;2.62;100.00
46682;BME280;34101;53.430;-2.224;2022-12-18T07:05:54;153150.89;;;2.68;100.00
46682;BME280;34101;53.430;-2.224;2022-12-18T07:08:22;153167.78;;;2.75;100.00
46682;BME280;34101;53.430;-2.224;2022-12-18T07:10:50;153179.60;;;2.80;100.00
46682;BME280;34101;53.430;-2.224;2022-12-18T07:13:17;153191.58;;;2.84;100.00
46682;BME280;34101;53.430;-2.224;2022-12-18T07:15:44;153197.37;;;2.87;100.00
46682;BME280;34101;53.430;-2.224;2022-12-18T07:18:11;153205.02;;;2.90;100.00
46682;BME280;34101;53.430;-2.224;2022-12-18T07:20:38;153227.46;;;2.99;100.00
46682;BME280;34101;53.430;-2.224;2022-12-18T07:23:05;153240.57;;;3.04;100.00
46682;BME280;34101;53.430;-2.224;2022-12-18T07:25:33;153258.10;;;3.11;100.00
46682;BME280;34101;53.430;-2.224;2022-12-18T07:28:01;153274.11;;;3.18;100.00
46682;BME280;34101;53.430;-2.224;2022-12-18T07:30:28;153276.77;;;3.19;100.00
46682;BME280;34101;53.430;-2.224;2022-12-18T07:32:56;153278.38;;;3.20;100.00
46682;BME280;34101;53.430;-2.224;2022-12-18T07:35:23;153275.40;;;3.18;100.00
46682;BME280;34101;53.430;-2.224;2022-12-18T07:37:51;153176.70;;;2.78;100.00
46682;BME280;34101;53.430;-2.224;2022-12-18T07:40:19;153225.28;;;2.98;100.00
46682;BME280;34101;53.430;-2.224;2022-12-18T07:42:46;153246.12;;;3.07;100.00
46682;BME280;34101;53.430;-2.224;2022-12-18T07:45:12;153260.84;;;3.12;100.00
46682;BME280;34101;53.430;-2.224;2022-12-18T07:47:40;153266.15;;;3.15;100.00
46682;BME280;34101;53.430;-2.224;2022-12-18T07:50:08;153270.25;;;3.16;100.00
46682;BME280;34101;53.430;-2.224;2022-12-18T07:52:35;153276.69;;;3.19;100.00
46682;BME280;34101;53.430;-2.224;2022-12-18T07:55:03;153282.56;;;3.21;100.00
46682;BME280;34101;53.430;-2.224;2022-12-18T07:57:30;153270.82;;;3.16;100.00
46682;BME280;34101;53.430;-2.224;2022-12-18T07:59:57;153238.80;;;3.04;100.00
46682;BME280;34101;53.430;-2.224;2022-12-18T08:02:25;153234.13;;;3.02;100.00
46682;BME280;34101;53.430;-2.224;2022-12-18T08:04:51;153233.09;;;3.01;100.00
46682;BME280;34101;53.430;-2.224;2022-12-18T08:07:19;153216.52;;;2.95;100.00
46682;BME280;34101;53.430;-2.224;2022-12-18T08:09:46;153193.84;;;2.85;100.00
46682;BME280;34101;53.430;-2.224;2022-12-18T08:12:14;153187.64;;;2.83;100.00
46682;BME280;34101;53.430;-2.224;2022-12-18T08:14:41;153180.16;;;2.80;100.00
46682;BME280;34101;53.430;-2.224;2022-12-18T08:17:08;153162.63;;;2.73;100.00
46682;BME280;34101;53.430;-2.224;2022-12-18T08:19:35;153147.91;;;2.67;100.00
46682;BME280;34101;53.430;-2.224;2022-12-18T08:22:02;153176.54;;;2.78;100.00
46682;BME280;34101;53.430;-2.224;2022-12-18T08:24:29;153151.93;;;2.68;100.00
46682;BME280;34101;53.430;-2.224;2022-12-18T08:26:57;153166.57;;;2.74;100.00
46682;BME280;34101;53.430;-2.224;2022-12-18T08:29:23;153156.12;;;2.70;100.00
46682;BME280;34101;53.430;-2.224;2022-12-18T08:31:50;153166.97;;;2.74;100.00
46682;BME280;34101;53.430;-2.224;2022-12-18T08:34:18;153159.01;;;2.71;100.00
46682;BME280;34101;53.430;-2.224;2022-12-18T08:36:45;153146.14;;;2.66;100.00
46682;BME280;34101;53.430;-2.224;2022-12-18T08:39:12;153158.37;;;2.71;100.00
46682;BME280;34101;53.430;-2.224;2022-12-18T08:41:40;153161.34;;;2.72;100.00
46682;BME280;34101;53.430;-2.224;2022-12-18T08:44:07;153131.91;;;2.60;100.00
46682;BME280;34101;53.430;-2.224;2022-12-18T08:46:36;153154.67;;;2.69;100.00
46682;BME280;34101;53.430;-2.224;2022-12-18T08:49:05;153150.81;;;2.68;100.00
46682;BME280;34101;53.430;-2.224;2022-12-18T08:51:32;153144.45;;;2.65;100.00
46682;BME280;34101;53.430;-2.224;2022-12-18T08:54:01;153126.36;;;2.58;100.00
46682;BME280;34101;53.430;-2.224;2022-12-18T08:56:29;153119.28;;;2.55;100.00
46682;BME280;34101;53.430;-2.224;2022-12-18T08:58:57;153119.04;;;2.55;100.00
46682;BME280;34101;53.430;-2.224;2022-12-18T09:01:24;153107.71;;;2.50;100.00
46682;BME280;34101;53.430;-2.224;2022-12-18T09:03:52;153109.23;;;2.51;100.00
46682;BME280;34101;53.430;-2.224;2022-12-18T09:06:21;153134.16;;;2.61;100.00
46682;BME280;34101;53.430;-2.224;2022-12-18T09:08:49;153150.00;;;2.68;100.00
46682;BME280;34101;53.430;-2.224;2022-12-18T09:11:20;153164.88;;;2.74;100.00
46682;BME280;34101;53.430;-2.224;2022-12-18T09:13:48;153191.42;;;2.84;100.00
46682;BME280;34101;53.430;-2.224;2022-12-18T09:16:16;153209.68;;;2.92;100.00
46682;BME280;34101;53.430;-2.224;2022-12-18T09:18:43;153208.96;;;2.91;100.00
46682;BME280;34101;53.430;-2.224;2022-12-18T09:21:12;153216.03;;;2.94;100.00
46682;BME280;34101;53.430;-2.224;2022-12-18T09:23:40;153237.75;;;3.03;100.00
46682;BME280;34101;53.430;-2.224;2022-12-18T09:26:08;153263.98;;;3.14;100.00
46682;BME280;34101;53.430;-2.224;2022-12-18T09:28:35;153276.77;;;3.19;100.00
46682;BME280;34101;53.430;-2.224;2022-12-18T09:31:06;153274.03;;;3.18;100.00
46682;BME280;34101;53.430;-2.224;2022-12-18T09:33:34;153257.78;;;3.11;100.00
46682;BME280;34101;53.430;-2.224;2022-12-18T09:36:05;153248.61;;;3.08;100.00
46682;BME280;34101;53.430;-2.224;2022-12-18T09:38:33;153257.70;;;3.11;100.00
46682;BME280;34101;53.430;-2.224;2022-12-18T09:41:06;153275.88;;;3.19;100.00
46682;BME280;34101;53.430;-2.224;2022-12-18T09:43:47;153278.30;;;3.20;100.00
46682;BME280;34101;53.430;-2.224;2022-12-18T09:46:19;153277.89;;;3.19;100.00
46682;BME280;34101;53.430;-2.224;2022-12-18T09:48:50;153280.47;;;3.20;100.00
46682;BME280;34101;53.430;-2.224;2022-12-18T09:51:23;153274.52;;;3.18;100.00
46682;BME280;34101;53.430;-2.224;2022-12-18T09:53:58;153280.79;;;3.21;100.00
46682;BME280;34101;53.430;-2.224;2022-12-18T09:56:28;153264.78;;;3.14;100.00
46682;BME280;34101;53.430;-2.224;2022-12-18T09:58:59;153260.28;;;3.12;100.00
46682;BME280;34101;53.430;-2.224;2022-12-18T10:01:29;153240.81;;;3.04;100.00
46682;BME280;34101;53.430;-2.224;2022-12-18T10:03:57;153256.01;;;3.11;100.00
46682;BME280;34101;53.430;-2.224;2022-12-18T10:06:33;153264.94;;;3.14;100.00
46682;BME280;34101;53.430;-2.224;2022-12-18T10:09:08;153273.95;;;3.18;100.00
46682;BME280;34101;53.430;-2.224;2022-12-18T10:11:46;153282.72;;;3.21;100.00
46682;BME280;34101;53.430;-2.224;2022-12-18T10:14:19;153297.12;;;3.27;100.00
46682;BME280;34101;53.430;-2.224;2022-12-18T10:16:59;153288.51;;;3.24;100.00
46682;BME280;34101;53.430;-2.224;2022-12-18T10:19:39;153317.08;;;3.35;100.00
46682;BME280;34101;53.430;-2.224;2022-12-18T10:22:17;153314.58;;;3.34;100.00
46682;BME280;34101;53.430;-2.224;2022-12-18T10:24:53;153327.13;;;3.39;100.00
46682;BME280;34101;53.430;-2.224;2022-12-18T10:27:24;153342.66;;;3.46;100.00
46682;BME280;34101;53.430;-2.224;2022-12-18T10:29:52;153338.88;;;3.44;100.00
46682;BME280;34101;53.430;-2.224;2022-12-18T10:32:22;153334.05;;;3.42;100.00
46682;BME280;34101;53.430;-2.224;2022-12-18T10:34:50;153349.10;;;3.48;100.00
46682;BME280;34101;53.430;-2.224;2022-12-18T10:37:20;153348.38;;;3.48;100.00
46682;BME280;34101;53.430;-2.224;2022-12-18T10:40:08;153334.45;;;3.42;100.00
46682;BME280;34101;53.430;-2.224;2022-12-18T10:42:36;153323.75;;;3.38;100.00
46682;BME280;34101;53.430;-2.224;2022-12-18T10:45:08;153328.58;;;3.40;100.00
46682;BME280;34101;53.430;-2.224;2022-12-18T10:47:37;153322.06;;;3.37;100.00
46682;BME280;34101;53.430;-2.224;2022-12-18T10:50:19;153319.57;;;3.36;100.00
46682;BME280;34101;53.430;-2.224;2022-12-18T10:52:55;153332.28;;;3.41;100.00
46682;BME280;34101;53.430;-2.224;2022-12-18T10:55:26;153353.85;;;3.50;100.00
46682;BME280;34101;53.430;-2.224;2022-12-18T10:57:54;153355.94;;;3.51;100.00
46682;BME280;34101;53.430;-2.224;2022-12-18T11:00:25;153369.86;;;3.57;100.00
46682;BME280;34101;53.430;-2.224;2022-12-18T11:02:53;153390.30;;;3.65;100.00
46682;BME280;34101;53.430;-2.224;2022-12-18T11:05:26;153386.76;;;3.63;100.00
46682;BME280;34101;53.430;-2.224;2022-12-18T11:07:54;153373.64;;;3.58;100.00
46682;BME280;34101;53.430;-2.224;2022-12-18T11:10:25;153359.96;;;3.53;100.00
46682;BME280;34101;53.430;-2.224;2022-12-18T11:12:53;153359.40;;;3.52;100.00
46682;BME280;34101;53.430;-2.224;2022-12-18T11:15:24;153369.30;;;3.56;100.00
46682;BME280;34101;53.430;-2.224;2022-12-18T11:17:53;153376.54;;;3.59;100.00
46682;BME280;34101;53.430;-2.224;2022-12-18T11:20:30;153351.67;;;3.49;100.00
46682;BME280;34101;53.430;-2.224;2022-12-18T11:22:59;153362.46;;;3.54;100.00
46682;BME280;34101;53.430;-2.224;2022-12-18T11:25:27;153376.14;;;3.59;100.00
46682;BME280;34101;53.430;-2.224;2022-12-18T11:27:58;153383.86;;;3.62;100.00
46682;BME280;34101;53.430;-2.224;2022-12-18T11:30:28;153395.45;;;3.67;100.00
46682;BME280;34101;53.430;-2.224;2022-12-18T11:32:59;153390.94;;;3.65;100.00
46682;BME280;34101;53.430;-2.224;2022-12-18T11:35:37;153392.23;;;3.66;100.00
46682;BME280;34101;53.430;-2.224;2022-12-18T11:38:13;153415.33;;;3.75;100.00
46682;BME280;34101;53.430;-2.224;2022-12-18T11:40:47;153415.81;;;3.75;100.00
46682;BME280;34101;53.430;-2.224;2022-12-18T11:43:21;153438.35;;;3.84;100.00
46682;BME280;34101;53.430;-2.224;2022-12-18T11:45:55;153446.48;;;3.88;100.00
46682;BME280;34101;53.430;-2.224;2022-12-18T11:48:27;153456.13;;;3.91;100.00
46682;BME280;34101;53.430;-2.224;2022-12-18T11:50:57;153416.94;;;3.76;100.00
46682;BME280;34101;53.430;-2.224;2022-12-18T11:53:27;153433.20;;;3.82;100.00
46682;BME280;34101;53.430;-2.224;2022-12-18T11:56:03;153417.34;;;3.76;100.00
46682;BME280;34101;53.430;-2.224;2022-12-18T11:58:44;153437.38;;;3.84;100.00
46682;BME280;34101;53.430;-2.224;2022-12-18T12:01:21;153448.97;;;3.89;100.00
46682;BME280;34101;53.430;-2.224;2022-12-18T12:03:59;153466.28;;;3.96;100.00
46682;BME280;34101;53.430;-2.224;2022-12-18T12:06:36;153488.90;;;4.05;100.00
46682;BME280;34101;53.430;-2.224;2022-12-18T12:09:15;153468.05;;;3.96;100.00
46682;BME280;34101;53.430;-2.224;2022-12-18T12:11:56;153444.54;;;3.87;100.00
46682;BME280;34101;53.430;-2.224;2022-12-18T12:14:41;153417.90;;;3.76;100.00
46682;BME280;34101;53.430;-2.224;2022-12-18T12:17:17;153425.95;;;3.79;100.00
46682;BME280;34101;53.430;-2.224;2022-12-18T12:19:54;153435.93;;;3.83;100.00
46682;BME280;34101;53.430;-2.224;2022-12-18T12:22:33;153441.49;;;3.86;100.00
46682;BME280;34101;53.430;-2.224;2022-12-18T12:25:15;153476.98;;;4.00;100.00
46682;BME280;34101;53.430;-2.224;2022-12-18T12:27:52;153469.34;;;3.97;100.00
46682;BME280;34101;53.430;-2.224;2022-12-18T12:30:30;153507.97;;;4.12;100.00
46682;BME280;34101;53.430;-2.224;2022-12-18T12:33:10;153476.10;;;4.00;100.00
46682;BME280;34101;53.430;-2.224;2022-12-18T12:35:47;153503.06;;;4.10;100.00
46682;BME280;34101;53.430;-2.224;2022-12-18T12:38:23;153481.49;;;4.02;100.00
46682;BME280;34101;53.430;-2.224;2022-12-18T12:40:54;153500.25;;;4.09;100.00
46682;BME280;34101;53.430;-2.224;2022-12-18T12:43:27;153488.33;;;4.05;100.00
46682;BME280;34101;53.430;-2.224;2022-12-18T12:45:58;153452.43;;;3.90;100.00
46682;BME280;34101;53.430;-2.224;2022-12-18T12:48:35;153389.50;;;3.65;100.00
46682;BME280;34101;53.430;-2.224;2022-12-18T12:51:08;153356.74;;;3.51;100.00
46682;BME280;34101;53.430;-2.224;2022-12-18T12:53:37;153352.80;;;3.50;100.00
46682;BME280;34101;53.430;-2.224;2022-12-18T12:56:10;153337.91;;;3.44;100.00
46682;BME280;34101;53.430;-2.224;2022-12-18T12:58:46;153322.14;;;3.37;100.00